createdAt,value
2022-08-16T00:00:22.523Z,6.75
2022-08-16T00:03:05.541Z,6.20
2022-08-16T00:05:35.181Z,6.60
2022-08-16T00:08:36.099Z,6.20
2022-08-16T00:11:15.919Z,5.85
2022-08-16T00:13:54.127Z,6.00
2022-08-16T00:17:00.528Z,6.82
2022-08-16T00:19:13.625Z,6.53
2022-08-16T00:21:42.398Z,6.10
2022-08-16T00:24:12.159Z,6.88
2022-08-16T00:26:44.111Z,6.78
2022-08-16T00:29:15.415Z,6.95
2022-08-16T00:31:58.978Z,6.90
2022-08-16T00:34:43.999Z,6.75
2022-08-16T00:40:34.163Z,6.57
2022-08-16T00:43:42.573Z,6.70
2022-08-16T00:46:33.087Z,7.38
2022-08-16T00:49:17.767Z,7.13
2022-08-16T00:51:53.751Z,7.47
2022-08-16T00:54:24.169Z,7.72
2022-08-16T00:56:58.342Z,7.35
2022-08-16T00:59:28.904Z,6.90
2022-08-16T01:02:30.087Z,7.25
2022-08-16T01:05:09.375Z,6.97
2022-08-16T01:07:43.821Z,7.40
2022-08-16T01:10:19.045Z,7.05
2022-08-16T01:12:46.859Z,7.38
2022-08-16T01:15:14.817Z,7.80
2022-08-16T01:17:43.463Z,7.60
2022-08-16T01:20:23.656Z,7.72
2022-08-16T01:22:59.538Z,7.57
2022-08-16T01:25:34.076Z,7.35
2022-08-16T01:28:03.339Z,7.93
2022-08-16T01:30:33.681Z,8.10
2022-08-16T01:33:15.427Z,7.93
2022-08-16T01:35:56.184Z,7.80
2022-08-16T01:38:29.740Z,7.53
2022-08-16T01:41:03.932Z,7.80
2022-08-16T01:43:32.254Z,8.00
2022-08-16T01:46:30.143Z,8.48
2022-08-16T01:48:49.236Z,8.43
2022-08-16T01:51:18.422Z,8.90
2022-08-16T01:53:54.787Z,7.53
2022-08-16T01:56:25.196Z,8.48
2022-08-16T01:58:53.897Z,9.20
2022-08-16T02:01:21.402Z,9.02
2022-08-16T02:03:50.711Z,9.27
2022-08-16T02:06:26.067Z,8.10
2022-08-16T02:09:05.209Z,8.23
2022-08-16T02:11:47.634Z,9.23
2022-08-16T02:14:26.300Z,8.45
2022-08-16T02:17:03.254Z,8.98
2022-08-16T02:19:58.688Z,8.82
2022-08-16T02:22:35.965Z,9.18
2022-08-16T02:25:09.707Z,9.18
2022-08-16T02:27:39.303Z,8.57
2022-08-16T02:30:10.080Z,8.77
2022-08-16T02:32:57.952Z,8.38
2022-08-16T02:35:26.037Z,8.57
2022-08-16T02:37:56.187Z,8.73
2022-08-16T02:40:24.186Z,8.15
2022-08-16T02:43:06.901Z,7.07
2022-08-16T02:45:35.683Z,7.88
2022-08-16T02:48:29.207Z,7.50
2022-08-16T02:51:03.196Z,7.53
2022-08-16T02:53:35.284Z,8.07
2022-08-16T02:56:02.836Z,8.40
2022-08-16T02:58:30.257Z,8.93
2022-08-16T03:00:58.300Z,8.00
2022-08-16T03:03:26.283Z,9.15
2022-08-16T03:05:53.631Z,8.60
2022-08-16T03:08:51.719Z,8.98
2022-08-16T03:11:21.939Z,9.38
2022-08-16T03:13:51.612Z,9.60
2022-08-16T03:16:38.025Z,10.13
2022-08-16T03:19:08.975Z,9.52
2022-08-16T03:21:38.100Z,9.32
2022-08-16T03:24:28.675Z,9.32
2022-08-16T03:26:57.785Z,10.18
2022-08-16T03:29:30.289Z,10.07
2022-08-16T03:35:01.544Z,10.27
2022-08-16T03:37:28.993Z,10.13
2022-08-16T03:40:02.687Z,9.60
2022-08-16T03:42:30.672Z,11.30
2022-08-16T03:45:03.063Z,8.85
2022-08-16T03:47:34.257Z,10.43
2022-08-16T03:50:02.994Z,10.32
2022-08-16T03:52:31.301Z,9.38
2022-08-16T03:54:59.814Z,9.23
2022-08-16T03:57:31.912Z,9.50
2022-08-16T04:00:10.993Z,10.27
2022-08-16T04:02:48.284Z,8.88
2022-08-16T04:05:17.247Z,9.10
2022-08-16T04:07:44.912Z,9.40
2022-08-16T04:10:37.366Z,9.00
2022-08-16T04:13:04.527Z,9.20
2022-08-16T04:15:32.366Z,9.75
2022-08-16T04:18:01.031Z,8.65
2022-08-16T04:20:33.874Z,9.23
2022-08-16T04:23:04.543Z,9.07
2022-08-16T04:25:34.199Z,9.05
2022-08-16T04:28:54.561Z,8.35
2022-08-16T04:30:50.426Z,8.18
2022-08-16T04:33:17.943Z,8.75
2022-08-16T04:35:56.179Z,7.88
2022-08-16T04:38:24.280Z,8.27
2022-08-16T04:40:51.899Z,8.15
2022-08-16T04:43:30.206Z,7.38
2022-08-16T04:46:00.307Z,7.68
2022-08-16T04:48:32.613Z,6.68
2022-08-16T04:51:01.767Z,6.55
2022-08-16T04:53:41.270Z,6.28
2022-08-16T04:56:11.578Z,6.40
2022-08-16T04:58:43.915Z,6.93
2022-08-16T05:01:13.907Z,6.60
2022-08-16T05:04:01.078Z,8.18
2022-08-16T05:06:45.602Z,6.35
2022-08-16T05:09:13.363Z,6.25
2022-08-16T05:11:40.856Z,6.22
2022-08-16T05:14:08.123Z,6.20
2022-08-16T05:16:36.621Z,6.00
2022-08-16T05:19:04.809Z,6.35
2022-08-16T05:21:37.967Z,6.25
2022-08-16T05:24:07.285Z,5.95
2022-08-16T05:26:34.948Z,6.03
2022-08-16T05:29:04.438Z,6.28
2022-08-16T05:31:32.567Z,6.22
2022-08-16T05:34:03.181Z,6.03
2022-08-16T05:36:36.777Z,6.40
2022-08-16T05:39:05.666Z,6.07
2022-08-16T05:41:33.095Z,6.15
2022-08-16T05:44:24.156Z,6.25
2022-08-16T05:46:53.159Z,5.85
2022-08-16T05:49:23.155Z,5.85
2022-08-16T05:51:50.608Z,5.75
2022-08-16T05:54:24.911Z,6.72
2022-08-16T05:56:54.156Z,6.28
2022-08-16T05:59:23.980Z,6.53
2022-08-16T06:01:51.339Z,5.78
2022-08-16T06:04:35.347Z,6.25
2022-08-16T06:07:06.857Z,5.63
2022-08-16T06:09:42.672Z,6.05
2022-08-16T06:12:27.373Z,6.95
2022-08-16T06:15:00.143Z,6.72
2022-08-16T06:20:23.700Z,6.68
2022-08-16T06:22:57.483Z,6.60
2022-08-16T06:25:36.420Z,7.13
2022-08-16T06:28:08.554Z,6.93
2022-08-16T06:30:43.601Z,6.82
2022-08-16T06:33:12.790Z,6.53
2022-08-16T06:35:41.669Z,6.30
2022-08-16T06:38:32.338Z,6.93
2022-08-16T06:40:57.255Z,6.63
2022-08-16T06:43:27.542Z,6.30
2022-08-16T06:45:55.258Z,6.68
2022-08-16T06:48:32.991Z,7.28
2022-08-16T06:51:05.661Z,7.00
2022-08-16T06:53:34.854Z,5.88
2022-08-16T06:56:04.446Z,5.45
2022-08-16T06:58:32.112Z,4.85
2022-08-16T07:01:00.666Z,5.40
2022-08-16T07:03:32.520Z,5.45
2022-08-16T07:06:18.794Z,5.03
2022-08-16T07:08:49.322Z,5.78
2022-08-16T07:11:17.169Z,5.32
2022-08-16T07:14:03.585Z,5.25
2022-08-16T07:16:32.330Z,4.95
2022-08-16T07:19:01.479Z,5.28
2022-08-16T07:21:45.805Z,5.28
2022-08-16T07:24:30.034Z,5.03
2022-08-16T07:26:59.178Z,5.22
2022-08-16T07:29:31.591Z,4.97
2022-08-16T07:32:00.699Z,5.03
2022-08-16T07:34:35.185Z,5.70
2022-08-16T07:37:07.253Z,5.30
2022-08-16T07:39:34.940Z,5.10
2022-08-16T07:42:20.226Z,5.45
2022-08-16T07:44:57.098Z,4.80
2022-08-16T07:47:31.530Z,4.72
2022-08-16T07:50:00.059Z,4.90
2022-08-16T07:52:33.108Z,4.95
2022-08-16T07:55:00.857Z,4.90
2022-08-16T07:57:28.443Z,5.10
2022-08-16T07:59:57.155Z,4.85
2022-08-16T08:02:27.423Z,5.15
2022-08-16T08:04:55.512Z,4.90
2022-08-16T08:07:23.225Z,5.45
2022-08-16T08:09:56.045Z,5.20
2022-08-16T08:12:31.452Z,5.15
2022-08-16T08:15:02.409Z,5.20
2022-08-16T08:17:42.597Z,4.93
2022-08-16T08:20:12.574Z,4.82
2022-08-16T08:22:49.197Z,4.80
2022-08-16T08:25:16.629Z,5.03
2022-08-16T08:27:44.192Z,5.22
2022-08-16T08:30:51.469Z,5.43
2022-08-16T08:33:01.054Z,5.53
2022-08-16T08:35:29.161Z,5.05
2022-08-16T08:37:56.734Z,5.10
2022-08-16T08:40:27.137Z,5.10
2022-08-16T08:43:00.479Z,5.45
2022-08-16T08:45:48.382Z,5.38
2022-08-16T08:48:32.958Z,5.10
2022-08-16T08:51:09.030Z,5.07
2022-08-16T08:53:38.150Z,5.28
2022-08-16T08:56:23.689Z,5.20
2022-08-16T08:58:58.080Z,4.60
2022-08-16T09:01:31.397Z,5.07
2022-08-16T09:04:04.911Z,5.40
2022-08-16T09:06:33.011Z,4.80
2022-08-16T09:09:00.344Z,5.32
2022-08-16T09:11:40.709Z,5.18
2022-08-16T09:17:02.329Z,5.63
2022-08-16T09:19:32.275Z,5.05
2022-08-16T09:22:01.945Z,5.60
2022-08-16T09:24:51.658Z,5.97
2022-08-16T09:27:17.029Z,5.57
2022-08-16T09:29:46.430Z,5.63
2022-08-16T09:32:28.691Z,5.72
2022-08-16T09:34:59.136Z,5.82
2022-08-16T09:37:30.148Z,5.90
2022-08-16T09:40:04.768Z,6.13
2022-08-16T09:42:56.584Z,6.65
2022-08-16T09:45:27.649Z,6.38
2022-08-16T09:47:57.650Z,6.50
2022-08-16T09:50:26.976Z,6.57
2022-08-16T09:53:05.593Z,6.35
2022-08-16T09:55:33.970Z,6.30
2022-08-16T09:58:40.852Z,6.05
2022-08-16T10:01:00.889Z,5.82
2022-08-16T10:03:30.371Z,5.90
2022-08-16T10:06:00.543Z,6.32
2022-08-16T10:08:27.895Z,6.27
2022-08-16T10:10:56.118Z,6.15
2022-08-16T10:13:23.354Z,7.18
2022-08-16T10:15:55.648Z,5.63
2022-08-16T10:18:56.858Z,5.95
2022-08-16T10:21:10.808Z,6.32
2022-08-16T10:23:38.274Z,5.47
2022-08-16T10:27:18.287Z,5.35
2022-08-16T10:28:53.325Z,5.68
2022-08-16T10:31:44.561Z,5.30
2022-08-16T10:34:30.689Z,6.10
2022-08-16T10:37:01.057Z,5.32
2022-08-16T10:39:41.156Z,5.53
2022-08-16T10:42:14.326Z,5.53
2022-08-16T10:44:42.267Z,6.00
2022-08-16T10:47:12.289Z,6.55
2022-08-16T10:49:39.639Z,6.20
2022-08-16T10:52:18.270Z,5.95
2022-08-16T10:57:39.200Z,6.38
2022-08-16T11:00:20.791Z,5.38
2022-08-16T11:03:01.484Z,5.28
2022-08-16T11:05:58.995Z,5.85
2022-08-16T11:08:17.448Z,5.40
2022-08-16T11:11:07.037Z,5.32
2022-08-16T11:13:59.782Z,5.90
2022-08-16T11:19:18.158Z,5.65
2022-08-16T11:24:42.735Z,5.10
2022-08-16T11:27:22.957Z,5.22
2022-08-16T11:29:52.944Z,4.97
2022-08-16T11:32:22.699Z,4.72
2022-08-16T11:35:15.997Z,4.30
2022-08-16T11:40:36.989Z,5.25
2022-08-16T11:43:05.773Z,4.93
2022-08-16T11:45:34.579Z,4.88
2022-08-16T11:48:03.202Z,5.05
2022-08-16T11:50:30.587Z,4.88
2022-08-16T11:52:57.842Z,4.80
2022-08-16T11:55:29.910Z,4.97
2022-08-16T11:57:57.461Z,4.78
2022-08-16T12:00:43.487Z,4.43
2022-08-16T12:03:13.375Z,4.72
2022-08-16T12:05:43.175Z,4.57
2022-08-16T12:08:10.607Z,4.95
2022-08-16T12:10:41.014Z,5.20
2022-08-16T12:13:10.813Z,5.07
2022-08-16T12:15:38.338Z,4.93
2022-08-16T12:18:07.442Z,4.53
2022-08-16T12:20:37.975Z,5.05
2022-08-16T12:23:11.547Z,5.55
2022-08-16T12:25:39.039Z,4.88
2022-08-16T12:28:07.162Z,4.68
2022-08-16T12:30:38.809Z,4.55
2022-08-16T12:33:07.924Z,4.97
2022-08-16T12:35:37.083Z,4.90
2022-08-16T12:38:38.086Z,4.90
2022-08-16T12:40:55.594Z,4.63
2022-08-16T12:43:24.895Z,4.47
2022-08-16T12:45:53.884Z,4.78
2022-08-16T12:48:39.898Z,4.47
2022-08-16T12:51:19.518Z,4.55
2022-08-16T12:53:48.653Z,4.45
2022-08-16T12:56:17.393Z,4.63
2022-08-16T12:58:49.161Z,3.90
2022-08-16T13:04:24.738Z,4.70
2022-08-16T13:06:53.099Z,4.22
2022-08-16T13:09:21.307Z,3.85
2022-08-16T13:11:58.140Z,4.00
2022-08-16T13:14:33.245Z,4.30
2022-08-16T13:17:02.007Z,3.80
2022-08-16T13:19:56.371Z,3.92
2022-08-16T13:22:21.376Z,4.50
2022-08-16T13:24:48.911Z,4.35
2022-08-16T13:27:59.474Z,4.45
2022-08-16T13:30:35.691Z,4.70
2022-08-16T13:33:10.748Z,4.43
2022-08-16T13:35:43.199Z,4.38
2022-08-16T13:38:24.585Z,4.65
2022-08-16T13:40:57.115Z,4.65
2022-08-16T13:43:26.538Z,4.78
2022-08-16T13:45:55.617Z,4.40
2022-08-16T13:48:42.713Z,4.40
2022-08-16T13:51:16.778Z,4.68
2022-08-16T13:53:49.424Z,4.40
2022-08-16T13:56:25.212Z,4.43
2022-08-16T13:58:55.038Z,4.53
2022-08-16T14:01:23.326Z,4.75
2022-08-16T14:03:54.807Z,4.30
2022-08-16T14:08:59.186Z,4.38
2022-08-16T14:11:34.607Z,4.07
2022-08-16T14:14:05.535Z,4.05
2022-08-16T14:16:34.764Z,4.40
2022-08-16T14:19:03.058Z,4.18
2022-08-16T14:21:35.250Z,4.18
2022-08-16T14:24:16.749Z,3.85
2022-08-16T14:26:52.704Z,4.55
2022-08-16T14:29:20.320Z,4.47
2022-08-16T14:31:53.584Z,4.18
2022-08-16T14:34:25.653Z,4.60
2022-08-16T14:36:59.584Z,4.03
2022-08-16T14:39:27.409Z,3.83
2022-08-16T14:42:03.200Z,3.58
2022-08-16T14:44:32.085Z,4.05
2022-08-16T14:47:23.191Z,4.07
2022-08-16T14:49:52.413Z,4.43
2022-08-16T14:52:44.591Z,4.22
2022-08-16T14:55:08.662Z,4.38
2022-08-16T14:57:38.197Z,4.07
2022-08-16T15:00:09.802Z,4.30
2022-08-16T15:02:45.548Z,4.28
2022-08-16T15:05:13.384Z,3.80
2022-08-16T15:07:44.061Z,4.25
2022-08-16T15:10:24.396Z,4.45
2022-08-16T15:13:09.630Z,4.32
2022-08-16T15:15:37.815Z,4.78
2022-08-16T15:18:05.598Z,4.50
2022-08-16T15:20:34.289Z,4.03
2022-08-16T15:23:04.669Z,3.95
2022-08-16T15:25:34.576Z,4.20
2022-08-16T15:28:04.651Z,4.18
2022-08-16T15:30:59.682Z,3.75
2022-08-16T15:33:21.995Z,4.22
2022-08-16T15:35:49.711Z,4.32
2022-08-16T15:38:43.556Z,4.47
2022-08-16T15:41:05.591Z,3.97
2022-08-16T15:43:39.511Z,4.13
2022-08-16T15:46:08.677Z,3.88
2022-08-16T15:48:36.016Z,3.75
2022-08-16T15:51:08.225Z,4.40
2022-08-16T15:53:42.041Z,4.03
2022-08-16T15:56:10.626Z,4.00
2022-08-16T15:58:41.119Z,4.15
2022-08-16T16:01:10.762Z,4.43
2022-08-16T16:03:39.628Z,3.92
2022-08-16T16:06:08.184Z,4.05
2022-08-16T16:08:38.881Z,3.97
2022-08-16T16:11:06.918Z,4.20
2022-08-16T16:13:35.135Z,5.03
2022-08-16T16:16:03.631Z,4.65
2022-08-16T16:18:34.226Z,4.28
2022-08-16T16:21:08.779Z,4.30
2022-08-16T16:23:41.167Z,4.30
2022-08-16T16:26:21.690Z,4.60
2022-08-16T16:29:08.693Z,4.40
2022-08-16T16:31:43.972Z,4.32
2022-08-16T16:34:32.340Z,4.30
2022-08-16T16:37:03.691Z,4.43
2022-08-16T16:39:32.760Z,3.92
2022-08-16T16:42:00.311Z,4.40
2022-08-16T16:44:33.896Z,5.00
2022-08-16T16:47:03.910Z,4.30
2022-08-16T16:49:31.424Z,3.78
2022-08-16T16:52:07.103Z,4.20
2022-08-16T16:54:35.223Z,4.07
2022-08-16T16:57:02.934Z,4.18
2022-08-16T16:59:30.486Z,4.45
2022-08-16T17:02:01.442Z,4.43
2022-08-16T17:04:47.220Z,3.78
2022-08-16T17:07:16.250Z,4.05
2022-08-16T17:09:43.717Z,4.47
2022-08-16T17:12:23.568Z,3.90
2022-08-16T17:14:59.323Z,3.92
2022-08-16T17:17:27.866Z,3.90
2022-08-16T17:19:57.005Z,4.47
2022-08-16T17:22:32.995Z,4.03
2022-08-16T17:25:14.185Z,4.32
2022-08-16T17:27:43.659Z,4.30
2022-08-16T17:30:29.370Z,3.70
2022-08-16T17:33:13.100Z,3.97
2022-08-16T17:35:42.109Z,3.65
2022-08-16T17:38:11.186Z,4.25
2022-08-16T17:40:55.265Z,4.50
2022-08-16T17:43:28.538Z,4.15
2022-08-16T17:45:56.799Z,4.15
2022-08-16T17:48:24.389Z,4.07
2022-08-16T17:50:54.571Z,3.67
2022-08-16T17:53:23.138Z,3.97
2022-08-16T17:55:50.751Z,4.32
2022-08-16T17:58:23.298Z,4.05
2022-08-16T18:00:53.049Z,6.13
2022-08-16T18:03:24.132Z,4.50
2022-08-16T18:06:11.157Z,4.28
2022-08-16T18:08:38.957Z,4.50
2022-08-16T18:11:07.917Z,4.80
2022-08-16T18:13:35.962Z,4.10
2022-08-16T18:16:03.381Z,4.70
2022-08-16T18:18:30.660Z,3.97
2022-08-16T18:20:58.279Z,4.45
2022-08-16T18:23:26.444Z,4.45
2022-08-16T18:25:58.569Z,4.45
2022-08-16T18:28:27.443Z,4.78
2022-08-16T18:31:00.809Z,5.18
2022-08-16T18:33:29.122Z,4.38
2022-08-16T18:35:57.933Z,16.35
2022-08-16T18:38:25.411Z,6.95
2022-08-16T18:40:53.228Z,6.35
2022-08-16T18:43:21.657Z,5.47
2022-08-16T18:46:09.159Z,5.38
2022-08-16T18:48:36.603Z,5.80
2022-08-16T18:51:08.292Z,5.18
2022-08-16T18:53:37.960Z,4.85
2022-08-16T18:56:11.382Z,6.75
2022-08-16T18:58:38.914Z,8.70
2022-08-16T19:01:06.341Z,6.10
2022-08-16T19:03:33.729Z,6.05
2022-08-16T19:06:05.837Z,6.20
2022-08-16T19:08:33.847Z,5.35
2022-08-16T19:11:01.194Z,6.03
2022-08-16T19:13:29.105Z,6.47
2022-08-16T19:15:57.978Z,5.85
2022-08-16T19:18:29.975Z,5.63
2022-08-16T19:21:04.787Z,5.53
2022-08-16T19:23:33.106Z,6.53
2022-08-16T19:26:02.068Z,8.30
2022-08-16T19:28:58.425Z,7.68
2022-08-16T19:31:27.131Z,6.18
2022-08-16T19:33:55.041Z,6.68
2022-08-16T19:36:32.064Z,6.25
2022-08-16T19:39:05.106Z,7.97
2022-08-16T19:44:00.344Z,6.60
2022-08-16T19:46:27.866Z,6.15
2022-08-16T19:48:55.165Z,6.65
2022-08-16T19:51:22.528Z,6.85
2022-08-16T19:53:50.064Z,6.03
2022-08-16T19:56:17.344Z,7.05
2022-08-16T19:59:08.902Z,6.55
2022-08-16T20:01:32.292Z,6.57
2022-08-16T20:03:59.615Z,6.35
2022-08-16T20:06:34.847Z,7.30
2022-08-16T20:09:07.125Z,6.32
2022-08-16T20:11:35.199Z,8.07
2022-08-16T20:14:02.725Z,6.45
2022-08-16T20:16:30.369Z,7.35
2022-08-16T20:18:57.659Z,7.47
2022-08-16T20:21:24.933Z,8.52
2022-08-16T20:23:54.042Z,7.07
2022-08-16T20:26:25.666Z,6.85
2022-08-16T20:28:55.260Z,6.93
2022-08-16T20:31:23.164Z,8.90
2022-08-16T20:34:17.889Z,7.25
2022-08-16T20:36:46.517Z,7.38
2022-08-16T20:39:13.880Z,7.07
2022-08-16T20:41:41.490Z,7.10
2022-08-16T20:44:10.074Z,6.47
2022-08-16T20:46:39.526Z,6.53
2022-08-16T20:49:09.120Z,5.97
2022-08-16T20:51:49.870Z,7.18
2022-08-16T20:54:18.863Z,7.03
2022-08-16T20:56:46.619Z,6.15
2022-08-16T20:59:13.895Z,7.68
2022-08-16T21:01:53.918Z,7.00
2022-08-16T21:04:22.942Z,6.93
2022-08-16T21:06:53.967Z,7.63
2022-08-16T21:09:26.443Z,8.05
2022-08-16T21:11:54.951Z,6.70
2022-08-16T21:14:22.587Z,7.18
2022-08-16T21:16:50.562Z,6.32
2022-08-16T21:19:18.021Z,6.05
2022-08-16T21:21:45.895Z,6.20
2022-08-16T21:24:13.754Z,7.35
2022-08-16T21:26:41.414Z,6.25
2022-08-16T21:29:20.660Z,7.35
2022-08-16T21:31:48.004Z,7.20
2022-08-16T21:34:15.318Z,6.97
2022-08-16T21:36:42.813Z,7.07
2022-08-16T21:39:10.056Z,8.07
2022-08-16T21:41:37.346Z,6.65
2022-08-16T21:44:05.484Z,7.18
2022-08-16T21:46:33.066Z,7.43
2022-08-16T21:49:00.407Z,6.80
2022-08-16T21:51:27.938Z,6.55
2022-08-16T21:53:55.207Z,6.57
2022-08-16T21:56:22.524Z,6.90
2022-08-16T21:58:52.768Z,6.97
2022-08-16T22:01:23.957Z,7.65
2022-08-16T22:04:35.388Z,6.88
2022-08-16T22:06:39.371Z,7.13
2022-08-16T22:09:07.333Z,7.05
2022-08-16T22:11:34.618Z,7.38
2022-08-16T22:14:02.221Z,6.45
2022-08-16T22:16:36.778Z,6.60
2022-08-16T22:19:04.556Z,7.65
2022-08-16T22:21:32.654Z,7.97
2022-08-16T22:24:00.138Z,7.78
2022-08-16T22:26:31.104Z,7.28
2022-08-16T22:29:06.359Z,7.40
2022-08-16T22:31:34.389Z,8.50
2022-08-16T22:34:02.250Z,7.43
2022-08-16T22:36:30.614Z,7.78
2022-08-16T22:39:09.591Z,7.80
2022-08-16T22:41:53.899Z,7.15
2022-08-16T22:44:21.332Z,8.35
2022-08-16T22:46:48.665Z,7.70
2022-08-16T22:49:17.984Z,8.40
2022-08-16T22:51:45.490Z,7.82
2022-08-16T22:54:43.935Z,8.13
2022-08-16T22:57:00.520Z,8.43
2022-08-16T22:59:27.941Z,8.35
2022-08-16T23:02:04.305Z,7.78
2022-08-16T23:04:31.867Z,8.43
2022-08-16T23:06:59.475Z,8.82
2022-08-16T23:09:26.775Z,9.35
2022-08-16T23:11:54.255Z,9.23
2022-08-16T23:14:21.604Z,8.55
2022-08-16T23:16:48.854Z,8.90
2022-08-16T23:19:16.927Z,8.60
2022-08-16T23:21:45.808Z,9.05
2022-08-16T23:24:14.045Z,8.40
2022-08-16T23:26:47.483Z,10.45
2022-08-16T23:29:22.226Z,8.48
2022-08-16T23:35:08.513Z,8.00
2022-08-16T23:37:35.985Z,8.15
2022-08-16T23:40:04.005Z,8.70
2022-08-16T23:42:52.452Z,9.07
2022-08-16T23:45:18.771Z,9.20
2022-08-16T23:47:46.088Z,9.65
2022-08-16T23:50:13.812Z,9.65
2022-08-16T23:53:13.470Z,10.35
2022-08-16T23:55:43.584Z,9.45
2022-08-16T23:58:12.129Z,9.98
